Time;durP1;ratioP1;P1;durP2;ratioP2;P2;SDS_P1;SDS_P2;PMS_P1;PMS_P2;Temp;Humidity;BMP_temperature;BMP_pressure;BME280_temperature;BME280_humidity;BME280_pressure;Samples;Min_cycle;Max_cycle;Signal;HPM_P1;HPM_P2
2021/10/05 00:02:18;;;;;;;0.10;0.10;;;16.50;68.10;;;;;;6194933;28;20030;-80
2021/10/05 00:05:19;;;;;;;0.22;0.20;;;16.50;68.50;;;;;;6218157;28;20474;-80
2021/10/05 00:08:19;;;;;;;0.10;0.10;;;16.40;68.50;;;;;;6216607;28;20091;-80
2021/10/05 00:11:20;;;;;;;0.52;0.30;;;16.40;68.60;;;;;;6188596;28;20034;-80
2021/10/05 00:14:21;;;;;;;0.40;0.40;;;16.40;68.80;;;;;;6179183;28;20459;-79
2021/10/05 00:17:22;;;;;;;0.35;0.20;;;16.40;68.80;;;;;;6194425;28;20030;-80
2021/10/05 00:20:23;;;;;;;0.20;0.10;;;16.30;68.80;;;;;;6195655;28;20030;-80
2021/10/05 00:23:24;;;;;;;0.00;0.00;;;16.30;68.70;;;;;;6215321;28;20040;-80
2021/10/05 00:26:25;;;;;;;0.10;0.10;;;16.30;68.60;;;;;;6190927;28;20398;-79
2021/10/05 00:29:26;;;;;;;0.22;0.10;;;16.30;68.60;;;;;;6195272;28;20070;-80
2021/10/05 00:32:28;;;;;;;0.25;0.15;;;16.30;68.50;;;;;;6195848;28;20042;-80
2021/10/05 00:35:29;;;;;;;0.13;0.13;;;16.30;69.20;;;;;;6179348;28;20360;-80
2021/10/05 00:38:30;;;;;;;0.00;0.00;;;16.40;68.30;;;;;;6192774;28;20046;-80
2021/10/05 00:41:33;;;;;;;0.10;0.10;;;16.40;68.30;;;;;;6177983;28;20030;-80
2021/10/05 00:44:39;;;;;;;0.20;0.10;;;16.40;68.20;;;;;;6198268;28;20092;-80
2021/10/05 00:47:40;;;;;;;0.28;0.20;;;16.40;68.20;;;;;;6214577;28;20382;-80
2021/10/05 00:50:41;;;;;;;0.50;0.15;;;16.50;68.20;;;;;;6195880;28;20041;-80
2021/10/05 00:53:42;;;;;;;0.00;0.00;;;16.50;68.00;;;;;;6233182;28;20115;-80
2021/10/05 00:56:43;;;;;;;0.00;0.00;;;16.50;67.70;;;;;;6203416;28;20041;-80
2021/10/05 00:59:44;;;;;;;0.10;0.10;;;16.60;67.50;;;;;;6202161;28;20049;-79
2021/10/05 01:02:45;;;;;;;0.20;0.10;;;16.60;67.30;;;;;;6193546;28;20034;-80
2021/10/05 01:05:46;;;;;;;0.20;0.15;;;16.60;67.10;;;;;;6186920;28;20035;-80
2021/10/05 01:08:47;;;;;;;0.10;0.10;;;16.60;67.10;;;;;;6196456;28;20038;-80
2021/10/05 01:11:48;;;;;;;0.00;0.00;;;16.60;66.90;;;;;;6192444;28;20026;-80
2021/10/05 01:14:48;;;;;;;0.10;0.10;;;16.60;66.80;;;;;;6197769;28;20125;-79
2021/10/05 01:17:50;;;;;;;0.20;0.17;;;16.70;66.80;;;;;;6197767;28;20042;-80
2021/10/05 01:21:03;;;;;;;0.13;0.13;;;16.70;66.60;;;;;;6180373;28;20459;-80
2021/10/05 01:24:06;;;;;;;0.57;0.20;;;16.60;66.30;;;;;;6192592;28;20069;-79
2021/10/05 01:27:10;;;;;;;0.20;0.20;;;16.60;66.30;;;;;;6205157;28;20070;-80
2021/10/05 01:30:11;;;;;;;0.25;0.20;;;16.50;66.40;;;;;;6200134;28;20081;-80
2021/10/05 01:33:13;;;;;;;0.10;0.08;;;16.50;66.40;;;;;;6200533;28;20042;-80
2021/10/05 01:36:14;;;;;;;0.15;0.15;;;16.50;66.60;;;;;;6218710;28;20042;-80
2021/10/05 01:39:23;;;;;;;0.57;0.20;;;16.40;66.50;;;;;;6226964;28;20414;-80
2021/10/05 01:42:24;;;;;;;0.03;0.03;;;16.40;66.60;;;;;;6222734;28;20049;-79
2021/10/05 01:45:27;;;;;;;0.20;0.20;;;16.30;66.50;;;;;;6207589;28;20034;-80
2021/10/05 01:48:28;;;;;;;1.85;0.10;;;16.40;66.70;;;;;;6199178;28;20106;-79
2021/10/05 01:51:29;;;;;;;0.10;0.10;;;16.30;66.50;;;;;;6201183;28;20095;-81
2021/10/05 01:54:30;;;;;;;0.22;0.20;;;16.30;66.50;;;;;;6203676;28;20414;-80
2021/10/05 01:57:31;;;;;;;0.20;0.20;;;16.30;66.40;;;;;;6215785;28;20466;-79
2021/10/05 02:00:32;;;;;;;0.32;0.10;;;16.30;66.40;;;;;;6220895;28;20348;-80
2021/10/05 02:03:33;;;;;;;0.10;0.10;;;16.30;66.40;;;;;;6208885;28;20037;-79
2021/10/05 02:06:34;;;;;;;0.05;0.05;;;16.30;66.40;;;;;;6222948;28;20030;-79
2021/10/05 02:09:35;;;;;;;0.20;0.20;;;16.40;66.40;;;;;;6188996;28;20038;-79
2021/10/05 02:12:37;;;;;;;0.00;0.00;;;16.40;66.40;;;;;;6183461;28;20038;-79
2021/10/05 02:15:39;;;;;;;0.15;0.10;;;16.40;66.40;;;;;;6239402;28;20072;-79
2021/10/05 02:18:40;;;;;;;0.10;0.10;;;16.40;66.40;;;;;;6212832;28;20491;-79
2021/10/05 02:21:41;;;;;;;0.00;0.00;;;16.40;66.40;;;;;;6202228;28;20034;-79
2021/10/05 02:24:43;;;;;;;0.00;0.00;;;16.40;66.40;;;;;;6206792;28;20113;-79
2021/10/05 02:27:44;;;;;;;0.10;0.10;;;16.50;66.40;;;;;;6229171;28;21008;-79
2021/10/05 02:30:45;;;;;;;0.10;0.10;;;16.50;66.50;;;;;;6222706;28;20034;-79
2021/10/05 02:33:46;;;;;;;0.20;0.17;;;16.50;66.40;;;;;;6211051;28;20064;-80
2021/10/05 02:36:47;;;;;;;0.10;0.10;;;16.50;66.30;;;;;;6222412;28;20049;-80
2021/10/05 02:39:48;;;;;;;0.20;0.20;;;16.50;66.30;;;;;;6222541;28;20030;-79
2021/10/05 02:42:49;;;;;;;0.77;0.77;;;16.50;66.50;;;;;;6206084;28;20038;-79
2021/10/05 02:45:49;;;;;;;0.70;0.68;;;16.50;66.70;;;;;;6205501;28;20125;-79
2021/10/05 02:48:50;;;;;;;1.30;0.80;;;16.50;67.10;;;;;;6193978;28;20042;-79
2021/10/05 02:51:51;;;;;;;0.13;0.13;;;16.50;67.40;;;;;;6182695;28;20030;-79
2021/10/05 02:54:54;;;;;;;0.52;0.13;;;16.50;67.70;;;;;;6182497;28;20117;-79
2021/10/05 02:57:54;;;;;;;0.43;0.25;;;16.50;67.70;;;;;;6198500;28;20041;-80
2021/10/05 03:00:55;;;;;;;0.22;0.10;;;16.50;67.80;;;;;;6197441;28;20038;-79
2021/10/05 03:03:56;;;;;;;0.10;0.10;;;16.40;67.60;;;;;;6198218;28;20078;-79
2021/10/05 03:06:57;;;;;;;0.03;0.03;;;16.30;67.60;;;;;;6198449;28;20432;-79
2021/10/05 03:09:58;;;;;;;1.02;0.20;;;16.30;67.80;;;;;;6199402;28;20034;-79
2021/10/05 03:12:59;;;;;;;4.88;0.50;;;16.20;67.70;;;;;;6193107;28;20173;-79
2021/10/05 03:16:01;;;;;;;1.38;0.25;;;16.20;67.90;;;;;;6196723;28;20041;-79
2021/10/05 03:19:03;;;;;;;1.95;0.68;;;16.20;68.00;;;;;;6213919;28;20034;-79
2021/10/05 03:22:03;;;;;;;1.05;0.60;;;16.10;68.40;;;;;;6203398;28;20042;-80
2021/10/05 03:25:05;;;;;;;3.92;0.60;;;16.10;68.30;;;;;;6191315;28;20041;-80
2021/10/05 03:28:06;;;;;;;0.98;0.40;;;16.10;68.50;;;;;;6218469;28;20379;-80
2021/10/05 03:31:07;;;;;;;5.32;0.52;;;16.00;68.50;;;;;;6221778;28;20045;-79
2021/10/05 03:34:08;;;;;;;2.65;0.65;;;15.90;68.60;;;;;;6206423;28;20046;-79
2021/10/05 03:37:09;;;;;;;1.50;0.52;;;15.90;68.80;;;;;;6180970;28;20042;-80
2021/10/05 03:40:10;;;;;;;0.68;0.40;;;15.80;69.00;;;;;;6197903;28;20038;-79
2021/10/05 03:43:11;;;;;;;0.52;0.40;;;15.80;69.20;;;;;;6197389;28;20030;-79
2021/10/05 03:46:12;;;;;;;2.13;0.38;;;15.70;69.20;;;;;;6218049;28;20049;-79
2021/10/05 03:49:12;;;;;;;1.58;0.40;;;15.70;69.40;;;;;;6200550;28;20439;-80
2021/10/05 03:52:13;;;;;;;3.10;0.50;;;15.70;69.50;;;;;;6181021;28;20054;-79
2021/10/05 03:55:14;;;;;;;0.63;0.55;;;15.70;69.60;;;;;;6171542;28;20054;-80
2021/10/05 03:58:16;;;;;;;0.88;0.60;;;15.70;69.60;;;;;;6192509;28;20037;-80
2021/10/05 04:01:17;;;;;;;3.40;0.52;;;15.60;69.70;;;;;;6194879;28;20038;-79
2021/10/05 04:04:18;;;;;;;1.70;0.60;;;15.60;69.80;;;;;;6186829;28;20057;-79
2021/10/05 04:07:19;;;;;;;1.70;0.70;;;15.60;70.00;;;;;;6195969;28;20108;-79
2021/10/05 04:10:20;;;;;;;2.90;0.80;;;15.60;70.20;;;;;;6205068;28;20097;-79
2021/10/05 04:13:21;;;;;;;1.13;0.55;;;15.60;70.30;;;;;;6209615;28;20077;-79
2021/10/05 04:16:22;;;;;;;0.65;0.55;;;15.60;70.40;;;;;;6195798;28;20045;-79
2021/10/05 04:19:22;;;;;;;0.98;0.60;;;15.60;70.50;;;;;;6179487;28;20030;-79
2021/10/05 04:22:23;;;;;;;0.60;0.45;;;15.50;70.60;;;;;;6200114;28;20423;-79
2021/10/05 04:25:24;;;;;;;4.03;0.63;;;15.60;70.80;;;;;;6195861;28;20089;-79
2021/10/05 04:28:25;;;;;;;1.45;0.40;;;15.60;70.80;;;;;;6191592;28;20046;-80
2021/10/05 04:31:26;;;;;;;0.82;0.55;;;15.60;70.80;;;;;;6197747;28;20061;-78
2021/10/05 04:34:27;;;;;;;0.93;0.50;;;15.50;70.70;;;;;;6210210;28;20030;-79
2021/10/05 04:37:29;;;;;;;2.28;0.50;;;15.50;70.80;;;;;;6220218;28;20120;-79
2021/10/05 04:40:30;;;;;;;2.13;0.85;;;15.50;70.90;;;;;;6226704;28;20108;-80
2021/10/05 04:43:30;;;;;;;3.22;0.50;;;15.50;71.00;;;;;;6220461;28;21803;-80
2021/10/05 04:46:31;;;;;;;3.28;0.77;;;15.50;71.00;;;;;;6219223;28;20173;-81
2021/10/05 04:49:33;;;;;;;7.07;0.95;;;15.50;70.90;;;;;;6201407;28;20049;-79
2021/10/05 04:52:33;;;;;;;2.55;0.55;;;15.50;71.10;;;;;;6196408;28;20108;-80
2021/10/05 04:55:37;;;;;;;0.90;0.60;;;15.50;71.20;;;;;;6214422;28;20053;-79
2021/10/05 04:58:38;;;;;;;1.52;0.93;;;15.50;71.20;;;;;;6203367;28;20518;-80
2021/10/05 05:01:38;;;;;;;4.22;1.05;;;15.60;71.30;;;;;;6217731;28;20033;-79
2021/10/05 05:04:39;;;;;;;1.80;0.55;;;15.60;71.20;;;;;;6175627;28;20437;-80
2021/10/05 05:07:40;;;;;;;1.05;0.50;;;15.70;71.10;;;;;;6184124;28;20042;-80
2021/10/05 05:10:41;;;;;;;0.50;0.50;;;15.70;71.10;;;;;;6200096;28;20035;-80
2021/10/05 05:13:42;;;;;;;0.98;0.45;;;15.70;71.00;;;;;;6202805;28;20415;-79
2021/10/05 05:16:43;;;;;;;1.33;0.68;;;15.70;71.00;;;;;;6199844;28;20366;-80
2021/10/05 05:19:44;;;;;;;2.60;0.88;;;15.70;70.80;;;;;;6204085;28;20034;-80
2021/10/05 05:22:45;;;;;;;1.33;0.52;;;15.80;70.80;;;;;;6217487;28;20106;-80
2021/10/05 05:25:46;;;;;;;2.05;0.60;;;15.80;70.70;;;;;;6224777;28;20049;-80
2021/10/05 05:28:47;;;;;;;4.78;1.13;;;15.80;70.60;;;;;;6184900;28;20046;-79
2021/10/05 05:31:49;;;;;;;1.40;0.90;;;15.80;70.60;;;;;;6199055;28;20062;-79
2021/10/05 05:34:50;;;;;;;1.90;1.25;;;15.80;70.50;;;;;;6199167;28;20042;-80
2021/10/05 05:37:50;;;;;;;2.78;1.02;;;15.80;70.50;;;;;;6199814;28;20097;-80
2021/10/05 05:40:52;;;;;;;1.67;1.38;;;15.90;70.60;;;;;;6197016;28;20320;-80
2021/10/05 05:43:54;;;;;;;5.28;2.17;;;15.80;70.60;;;;;;6199891;28;20050;-81
2021/10/05 05:46:55;;;;;;;3.45;1.98;;;15.90;70.50;;;;;;6223325;28;20356;-81
2021/10/05 05:49:59;;;;;;;3.42;1.75;;;15.90;70.50;;;;;;6189629;28;20096;-80
2021/10/05 05:53:00;;;;;;;3.17;1.92;;;15.90;70.50;;;;;;6201996;28;20125;-80
2021/10/05 05:56:01;;;;;;;7.13;2.03;;;16.00;70.40;;;;;;6220437;28;20095;-79
2021/10/05 05:59:02;;;;;;;4.82;1.55;;;16.00;70.30;;;;;;6202547;28;20069;-80
2021/10/05 06:02:04;;;;;;;3.00;1.80;;;16.10;70.20;;;;;;6210604;28;20340;-80
2021/10/05 06:05:05;;;;;;;6.63;2.25;;;16.10;70.00;;;;;;6182854;28;20101;-80
2021/10/05 06:08:08;;;;;;;3.00;1.88;;;16.10;70.00;;;;;;6199715;28;20046;-79
2021/10/05 06:11:09;;;;;;;4.72;2.22;;;16.10;69.90;;;;;;6200082;28;20121;-80
2021/10/05 06:14:10;;;;;;;3.10;1.92;;;16.10;69.80;;;;;;6199845;28;20510;-80
2021/10/05 06:17:11;;;;;;;3.53;1.90;;;16.20;69.80;;;;;;6203026;28;21480;-80
2021/10/05 06:20:14;;;;;;;4.18;2.60;;;16.20;69.60;;;;;;6198548;28;20066;-80
2021/10/05 06:23:15;;;;;;;3.85;2.47;;;16.30;69.60;;;;;;6204761;28;20033;-80
2021/10/05 06:26:16;;;;;;;3.47;2.05;;;16.30;69.50;;;;;;6216714;28;20463;-80
2021/10/05 06:29:17;;;;;;;3.70;2.10;;;16.30;69.50;;;;;;6196826;28;20046;-80
2021/10/05 06:32:18;;;;;;;5.85;2.28;;;16.30;69.30;;;;;;6172888;28;20460;-80
2021/10/05 06:35:21;;;;;;;4.00;2.38;;;16.30;69.30;;;;;;6180758;28;20040;-81
2021/10/05 06:38:23;;;;;;;3.28;2.08;;;16.30;69.30;;;;;;6169664;28;20105;-80
2021/10/05 06:41:24;;;;;;;3.03;2.10;;;16.30;69.30;;;;;;6170556;28;20053;-80
2021/10/05 06:44:27;;;;;;;4.22;2.53;;;16.30;69.30;;;;;;6172209;28;20375;-80
2021/10/05 06:47:27;;;;;;;7.80;2.08;;;16.20;69.30;;;;;;6191198;28;20092;-81
2021/10/05 06:50:32;;;;;;;9.38;2.88;;;16.30;69.40;;;;;;6190951;28;20478;-80
2021/10/05 06:53:33;;;;;;;10.98;2.20;;;16.30;69.30;;;;;;6196241;28;20077;-80
2021/10/05 06:56:34;;;;;;;5.68;2.28;;;16.30;69.30;;;;;;6185126;28;20138;-81
2021/10/05 06:59:35;;;;;;;8.07;1.77;;;16.30;69.30;;;;;;6181299;28;20035;-79
2021/10/05 07:02:38;;;;;;;8.80;2.22;;;16.30;69.20;;;;;;6193089;28;20026;-80
2021/10/05 07:05:39;;;;;;;2.75;1.73;;;16.30;69.30;;;;;;6175155;28;20065;-80
2021/10/05 07:08:42;;;;;;;6.97;2.72;;;16.30;69.30;;;;;;6201047;28;20132;-80
2021/10/05 07:11:45;;;;;;;3.58;1.83;;;16.30;69.20;;;;;;6204549;28;20038;-80
2021/10/05 07:14:48;;;;;;;3.83;1.70;;;16.40;69.20;;;;;;6215348;28;20035;-80
2021/10/05 07:17:53;;;;;;;7.03;2.35;;;16.30;69.10;;;;;;6221624;28;20164;-80
2021/10/05 07:20:54;;;;;;;4.70;2.20;;;16.40;69.30;;;;;;6196321;28;20073;-79
2021/10/05 07:23:55;;;;;;;4.80;1.88;;;16.40;69.50;;;;;;6194226;28;20371;-79
2021/10/05 07:26:56;;;;;;;3.53;2.08;;;16.40;69.50;;;;;;6204689;28;20045;-80
2021/10/05 07:29:57;;;;;;;9.15;2.08;;;16.40;69.50;;;;;;6178071;28;20077;-79
2021/10/05 07:33:02;;;;;;;3.15;2.00;;;16.50;69.40;;;;;;6198197;28;20399;-79
2021/10/05 07:36:03;;;;;;;5.90;2.20;;;16.50;69.30;;;;;;6198635;28;20034;-79
2021/10/05 07:39:04;;;;;;;2.55;1.75;;;16.60;69.40;;;;;;6182284;28;20035;-80
2021/10/05 07:42:06;;;;;;;3.55;2.47;;;16.70;69.40;;;;;;6204973;28;20045;-79
2021/10/05 07:45:07;;;;;;;5.50;2.33;;;16.70;69.20;;;;;;6202288;28;20031;-79
2021/10/05 07:48:08;;;;;;;3.40;2.00;;;16.80;69.10;;;;;;6217800;28;20042;-80
2021/10/05 07:51:09;;;;;;;4.88;1.90;;;16.90;69.00;;;;;;6196470;28;20054;-80
2021/10/05 07:54:10;;;;;;;4.32;2.53;;;17.00;68.90;;;;;;6199151;28;20077;-81
2021/10/05 07:57:12;;;;;;;5.88;2.58;;;17.00;68.50;;;;;;6197516;28;20042;-80
2021/10/05 08:00:14;;;;;;;4.45;2.50;;;17.10;68.30;;;;;;6196473;28;20042;-80
2021/10/05 08:03:15;;;;;;;5.72;2.85;;;17.20;68.20;;;;;;6179303;28;20062;-80
2021/10/05 08:06:16;;;;;;;6.63;3.00;;;17.20;67.90;;;;;;6198122;28;20557;-81
2021/10/05 08:09:17;;;;;;;7.45;2.78;;;17.40;67.80;;;;;;6198569;28;20482;-80
2021/10/05 08:12:18;;;;;;;6.25;2.67;;;17.40;67.40;;;;;;6201474;28;20045;-80
2021/10/05 08:15:19;;;;;;;5.93;3.22;;;17.60;67.30;;;;;;6201846;28;20046;-79
2021/10/05 08:18:21;;;;;;;7.05;2.25;;;17.70;66.90;;;;;;6195597;28;20037;-79
2021/10/05 08:21:22;;;;;;;3.92;2.10;;;17.80;66.30;;;;;;6197367;28;20455;-79
2021/10/05 08:24:23;;;;;;;3.47;1.98;;;17.90;66.00;;;;;;6197185;28;20042;-80
2021/10/05 08:27:23;;;;;;;3.97;1.77;;;18.00;65.80;;;;;;6180696;28;20467;-81
2021/10/05 08:30:25;;;;;;;7.97;1.60;;;18.10;65.50;;;;;;6216986;28;20357;-80
2021/10/05 08:33:26;;;;;;;2.15;1.25;;;18.20;65.20;;;;;;6191066;28;20069;-79
2021/10/05 08:36:26;;;;;;;6.97;1.67;;;18.30;64.60;;;;;;6197060;28;20030;-81
2021/10/05 08:39:29;;;;;;;49.20;20.83;;;18.30;64.20;;;;;;6222491;28;20025;-81
2021/10/05 08:42:30;;;;;;;11.55;2.78;;;18.40;64.20;;;;;;6207630;28;20061;-80
2021/10/05 08:45:31;;;;;;;2.33;1.45;;;18.40;64.20;;;;;;6225429;28;20026;-80
2021/10/05 08:48:35;;;;;;;7.50;2.22;;;18.50;64.00;;;;;;6220175;28;20042;-80
2021/10/05 08:51:39;;;;;;;2.55;1.27;;;18.60;63.90;;;;;;6201758;28;20034;-81
2021/10/05 08:54:41;;;;;;;6.82;3.03;;;18.70;63.50;;;;;;6200372;28;20034;-81
2021/10/05 08:57:42;;;;;;;3.97;1.67;;;18.80;63.30;;;;;;6201850;28;20096;-80
2021/10/05 09:00:44;;;;;;;2.75;1.70;;;18.80;63.10;;;;;;6215358;28;20046;-80
2021/10/05 09:03:51;;;;;;;3.70;1.65;;;18.50;62.70;;;;;;6213313;28;20088;-80
2021/10/05 09:06:54;;;;;;;3.30;1.60;;;18.90;62.80;;;;;;6190596;28;20036;-79
2021/10/05 09:10:05;;;;;;;1.90;1.30;;;18.90;62.80;;;;;;6226104;28;20430;-80
2021/10/05 09:13:06;;;;;;;2.35;1.30;;;19.00;62.60;;;;;;6225065;28;20047;-80
2021/10/05 09:16:19;;;;;;;3.25;1.33;;;19.10;62.40;;;;;;6175344;28;20367;-81
2021/10/05 09:19:20;;;;;;;4.45;1.70;;;19.10;62.30;;;;;;6200952;28;20034;-80
2021/10/05 09:22:25;;;;;;;3.80;1.00;;;19.20;62.10;;;;;;6195710;28;20042;-80
2021/10/05 09:25:28;;;;;;;5.25;1.30;;;19.20;61.50;;;;;;6210104;28;20109;-81
2021/10/05 09:28:30;;;;;;;7.45;1.20;;;19.20;61.50;;;;;;6223136;28;20042;-80
2021/10/05 09:31:30;;;;;;;5.40;1.13;;;19.20;61.50;;;;;;6223821;28;20040;-79
2021/10/05 09:34:37;;;;;;;2.85;1.45;;;19.10;61.20;;;;;;6216507;28;20117;-81
2021/10/05 09:37:37;;;;;;;11.35;1.20;;;19.10;61.40;;;;;;6224194;28;20475;-79
2021/10/05 09:40:39;;;;;;;2.47;1.23;;;19.10;61.60;;;;;;6217819;28;20046;-80
2021/10/05 09:43:41;;;;;;;6.22;1.50;;;19.20;61.50;;;;;;6207446;28;20416;-79
2021/10/05 09:46:49;;;;;;;2.25;1.00;;;19.30;61.30;;;;;;6216964;28;20029;-79
2021/10/05 09:49:50;;;;;;;2.33;1.17;;;19.30;61.40;;;;;;6218105;28;20064;-80
2021/10/05 09:52:54;;;;;;;2.45;1.10;;;19.30;61.20;;;;;;6200529;28;20034;-80
2021/10/05 09:55:55;;;;;;;4.93;0.80;;;19.30;61.10;;;;;;6200220;28;20038;-80
2021/10/05 09:58:57;;;;;;;3.03;1.17;;;19.30;61.10;;;;;;6200558;28;20050;-81
2021/10/05 10:01:59;;;;;;;10.48;1.30;;;19.40;61.20;;;;;;6209071;28;20042;-80
2021/10/05 10:05:02;;;;;;;1.02;0.85;;;19.40;61.00;;;;;;6205808;28;20471;-79
2021/10/05 10:08:03;;;;;;;1.55;0.70;;;19.50;60.80;;;;;;6222813;28;20527;-80
2021/10/05 10:11:04;;;;;;;1.30;1.00;;;19.60;60.40;;;;;;6225165;28;20531;-80
2021/10/05 10:14:05;;;;;;;1.55;0.90;;;19.90;60.20;;;;;;6223892;28;20061;-81
2021/10/05 10:17:06;;;;;;;2.78;0.80;;;20.10;59.90;;;;;;6200642;28;20084;-80
2021/10/05 10:20:18;;;;;;;1.85;0.90;;;20.40;59.60;;;;;;6203916;28;20038;-80
2021/10/05 10:23:24;;;;;;;0.52;0.52;;;20.70;59.20;;;;;;6218152;28;20031;-80
2021/10/05 10:26:25;;;;;;;5.50;2.78;;;21.00;58.40;;;;;;6223118;28;20345;-80
2021/10/05 10:29:29;;;;;;;1.02;0.60;;;21.10;57.60;;;;;;6181011;28;20054;-80
2021/10/05 10:32:52;;;;;;;2.42;1.10;;;21.30;57.40;;;;;;6212012;28;20347;-80
2021/10/05 10:35:58;;;;;;;5.07;0.80;;;21.40;57.60;;;;;;6222580;28;20490;-80
2021/10/05 10:39:08;;;;;;;10.57;4.30;;;21.60;56.80;;;;;;6221053;28;20125;-80
2021/10/05 10:42:09;;;;;;;27.50;10.43;;;21.70;56.50;;;;;;6207066;28;20109;-80
2021/10/05 10:45:20;;;;;;;3.38;1.60;;;21.80;56.30;;;;;;6220825;28;20042;-80
2021/10/05 10:48:34;;;;;;;9.80;4.47;;;21.80;55.80;;;;;;6219167;28;20172;-80
2021/10/05 10:51:40;;;;;;;2.97;1.58;;;21.80;55.80;;;;;;6187433;28;20110;-79
2021/10/05 10:54:52;;;;;;;7.60;2.10;;;21.80;56.00;;;;;;6194549;28;20454;-80
2021/10/05 10:57:54;;;;;;;8.23;1.90;;;21.80;56.00;;;;;;6193615;28;20062;-80
2021/10/05 11:00:55;;;;;;;2.75;1.40;;;21.90;55.80;;;;;;6193650;28;20104;-80
2021/10/05 11:04:02;;;;;;;31.90;2.97;;;22.00;55.60;;;;;;6180494;28;20031;-80
2021/10/05 11:07:04;;;;;;;6.50;1.55;;;22.00;55.40;;;;;;6197432;28;20158;-79
2021/10/05 11:10:07;;;;;;;10.77;1.60;;;22.10;55.30;;;;;;6203549;28;20379;-81
2021/10/05 11:13:10;;;;;;;17.05;1.58;;;22.10;55.10;;;;;;6206277;28;20042;-81
2021/10/05 11:16:22;;;;;;;2.00;0.90;;;22.20;55.20;;;;;;6201493;28;20092;-82
2021/10/05 11:19:26;;;;;;;;;;;22.20;54.90;;;;;;6212152;28;20042;-80
2021/10/05 11:22:27;;;;;;;2.58;0.70;;;22.20;54.80;;;;;;6195896;28;19921;-81
2021/10/05 11:25:27;;;;;;;1.55;0.65;;;22.30;54.70;;;;;;6181660;28;20054;-80
2021/10/05 11:28:32;;;;;;;1.02;0.80;;;22.20;54.50;;;;;;6179887;28;20129;-81
2021/10/05 11:32:01;;;;;;;1.05;0.70;;;22.20;54.30;;;;;;6181683;28;20414;-80
2021/10/05 11:35:02;;;;;;;0.77;0.68;;;22.20;54.40;;;;;;6200521;28;20054;-80
2021/10/05 11:38:03;;;;;;;1.65;0.90;;;22.20;54.40;;;;;;6205164;28;20046;-80
2021/10/05 11:41:06;;;;;;;4.55;0.93;;;22.20;54.40;;;;;;6181223;28;20129;-80
2021/10/05 11:44:12;;;;;;;7.53;1.17;;;22.20;54.40;;;;;;6181107;28;20041;-80
2021/10/05 11:47:15;;;;;;;3.20;1.00;;;22.10;54.30;;;;;;6185177;28;20034;-80
2021/10/05 11:50:16;;;;;;;3.85;1.00;;;22.10;54.40;;;;;;6220033;28;20056;-81
2021/10/05 11:53:17;;;;;;;3.50;0.80;;;22.00;54.50;;;;;;6196557;28;20034;-80
2021/10/05 11:56:21;;;;;;;5.97;0.88;;;22.00;54.50;;;;;;6197345;28;20086;-80
2021/10/05 11:59:26;;;;;;;1.65;0.70;;;22.00;54.60;;;;;;6210122;28;20113;-79
2021/10/05 12:02:28;;;;;;;1.00;0.77;;;22.00;54.40;;;;;;6197356;28;20045;-79
2021/10/05 12:05:34;;;;;;;3.05;0.90;;;22.00;54.20;;;;;;6197450;28;20317;-80
2021/10/05 12:08:44;;;;;;;6.53;1.10;;;22.00;54.30;;;;;;6198568;28;20042;-80
2021/10/05 12:11:47;;;;;;;24.75;2.08;;;22.00;54.20;;;;;;6196896;28;20400;-80
2021/10/05 12:14:55;;;;;;;11.35;1.75;;;22.00;54.40;;;;;;6218083;28;20478;-79
2021/10/05 12:18:06;;;;;;;93.22;5.30;;;21.90;54.30;;;;;;6212220;28;20380;-79
2021/10/05 12:21:12;;;;;;;30.33;2.20;;;21.80;54.50;;;;;;6175855;28;20026;-79
2021/10/05 12:24:13;;;;;;;9.95;0.90;;;21.70;54.70;;;;;;6196339;28;20100;-80
2021/10/05 12:27:33;;;;;;;10.07;1.52;;;21.70;54.80;;;;;;6178656;28;20349;-81
2021/10/05 12:30:33;;;;;;;13.55;1.80;;;21.60;54.90;;;;;;6195611;28;20038;-80
2021/10/05 12:33:35;;;;;;;2.15;1.13;;;21.50;55.00;;;;;;6199393;28;20329;-79
2021/10/05 12:36:37;;;;;;;6.88;1.08;;;21.40;55.30;;;;;;6199084;28;20294;-79
2021/10/05 12:39:38;;;;;;;1.98;0.90;;;21.30;55.70;;;;;;6196472;28;20046;-80
2021/10/05 12:42:47;;;;;;;6.20;0.80;;;21.30;55.80;;;;;;6185607;28;20471;-79
2021/10/05 12:45:59;;;;;;;3.60;1.02;;;21.20;56.00;;;;;;6195096;28;20089;-79
2021/10/05 12:49:11;;;;;;;8.13;1.30;;;21.10;56.20;;;;;;6212811;28;20510;-80
2021/10/05 12:52:12;;;;;;;1.50;0.65;;;21.10;56.40;;;;;;6198040;28;20042;-80
2021/10/05 12:55:12;;;;;;;21.77;8.50;;;21.00;56.40;;;;;;6197128;28;20149;-80
2021/10/05 12:58:14;;;;;;;2.70;1.05;;;20.90;56.50;;;;;;6195708;28;20120;-79
2021/10/05 13:01:18;;;;;;;2.58;1.30;;;20.80;56.80;;;;;;6220169;28;20049;-79
2021/10/05 13:04:19;;;;;;;7.82;1.20;;;20.80;57.10;;;;;;6196880;28;20105;-81
2021/10/05 13:07:20;;;;;;;2.65;1.15;;;20.70;57.30;;;;;;6196929;28;20045;-79
2021/10/05 13:10:23;;;;;;;3.97;1.35;;;20.60;57.60;;;;;;6211434;28;20042;-79
2021/10/05 13:13:24;;;;;;;5.72;1.10;;;20.50;57.80;;;;;;6203043;28;20081;-80
2021/10/05 13:16:25;;;;;;;2.78;0.90;;;20.40;58.10;;;;;;6196369;28;20043;-79
2021/10/05 13:19:25;;;;;;;4.72;1.33;;;20.30;58.40;;;;;;6196481;28;20045;-79
2021/10/05 13:22:27;;;;;;;9.70;1.10;;;20.20;58.70;;;;;;6185641;28;20459;-80
2021/10/05 13:25:27;;;;;;;2.33;1.00;;;20.20;58.80;;;;;;6200386;28;20027;-79
2021/10/05 13:28:28;;;;;;;2.15;0.90;;;20.20;59.40;;;;;;6201095;28;20054;-81
2021/10/05 13:31:31;;;;;;;6.07;0.93;;;20.10;59.00;;;;;;6198772;28;20475;-78
2021/10/05 13:34:32;;;;;;;3.92;0.93;;;20.00;59.30;;;;;;6185394;28;20042;-80
2021/10/05 13:37:33;;;;;;;5.90;1.05;;;20.00;59.60;;;;;;6225701;28;20042;-80
2021/10/05 13:40:41;;;;;;;4.53;1.10;;;19.90;59.80;;;;;;6224094;28;20048;-79
2021/10/05 13:43:42;;;;;;;2.47;1.13;;;19.90;60.00;;;;;;6206206;28;20427;-79
2021/10/05 13:46:44;;;;;;;1.83;0.95;;;19.90;60.30;;;;;;6207580;28;20064;-79
2021/10/05 13:49:45;;;;;;;1.80;1.15;;;19.80;60.50;;;;;;6195520;28;20531;-79
2021/10/05 13:52:46;;;;;;;8.10;1.15;;;19.60;60.80;;;;;;6184056;28;20114;-80
2021/10/05 13:55:47;;;;;;;4.70;1.08;;;19.50;61.20;;;;;;6185372;28;20378;-80
2021/10/05 13:58:48;;;;;;;2.47;1.17;;;19.40;61.60;;;;;;6183229;28;20077;-80
2021/10/05 14:01:49;;;;;;;3.25;1.10;;;19.30;62.00;;;;;;6195791;28;20117;-79
2021/10/05 14:04:50;;;;;;;2.38;1.27;;;19.20;62.50;;;;;;6201104;28;20088;-80
2021/10/05 14:07:51;;;;;;;2.10;1.00;;;19.10;62.80;;;;;;6196940;28;20042;-80
2021/10/05 14:10:59;;;;;;;3.95;1.10;;;19.00;63.00;;;;;;6183826;28;20455;-80
2021/10/05 14:14:00;;;;;;;3.53;1.47;;;19.00;63.40;;;;;;6220498;28;20046;-79
2021/10/05 14:17:00;;;;;;;2.65;1.20;;;18.90;63.70;;;;;;6200888;28;20285;-81
2021/10/05 14:20:02;;;;;;;1.85;1.20;;;18.80;64.10;;;;;;6184827;28;20046;-79
2021/10/05 14:23:03;;;;;;;6.07;1.92;;;18.80;64.50;;;;;;6214169;28;20038;-79
2021/10/05 14:26:04;;;;;;;7.30;1.27;;;18.80;64.60;;;;;;6200418;28;20064;-78
2021/10/05 14:29:05;;;;;;;4.93;1.00;;;18.80;64.80;;;;;;6185372;28;20498;-78
2021/10/05 14:32:06;;;;;;;1.73;1.10;;;18.70;64.80;;;;;;6203713;28;20117;-80
2021/10/05 14:35:08;;;;;;;3.30;0.90;;;18.60;65.00;;;;;;6211357;28;20033;-79
2021/10/05 14:38:11;;;;;;;2.03;0.82;;;18.60;65.50;;;;;;6223298;28;20033;-79
2021/10/05 14:41:13;;;;;;;3.92;1.23;;;18.50;65.80;;;;;;6228894;28;20102;-78
2021/10/05 14:44:14;;;;;;;1.58;1.17;;;18.50;66.10;;;;;;6210236;28;20121;-80
2021/10/05 14:47:15;;;;;;;5.13;1.25;;;18.50;66.10;;;;;;6217159;28;20109;-80
2021/10/05 14:50:16;;;;;;;5.22;1.52;;;18.50;66.20;;;;;;6203415;28;22551;-81
2021/10/05 14:53:17;;;;;;;6.40;1.05;;;18.60;66.20;;;;;;6206093;28;20521;-80
2021/10/05 14:56:18;;;;;;;3.35;1.38;;;18.70;67.00;;;;;;6220769;28;20095;-81
2021/10/05 14:59:19;;;;;;;4.85;2.00;;;18.80;66.10;;;;;;6192692;28;20038;-79
2021/10/05 15:02:20;;;;;;;2.60;1.23;;;18.80;66.00;;;;;;6199717;28;20038;-79
2021/10/05 15:05:21;;;;;;;3.08;1.52;;;18.90;66.10;;;;;;6198148;28;20038;-80
2021/10/05 15:08:21;;;;;;;2.50;1.35;;;18.90;66.10;;;;;;6197684;28;20038;-79
2021/10/05 15:11:23;;;;;;;4.75;1.52;;;19.00;66.10;;;;;;6198859;28;20060;-80
2021/10/05 15:14:24;;;;;;;10.77;2.45;;;19.10;66.30;;;;;;6207851;28;20048;-80
2021/10/05 15:17:25;;;;;;;3.80;1.45;;;19.10;66.40;;;;;;6179221;28;20035;-80
2021/10/05 15:20:26;;;;;;;4.03;1.90;;;19.10;66.50;;;;;;6198609;28;20055;-80
2021/10/05 15:23:27;;;;;;;5.15;2.45;;;19.20;66.70;;;;;;6215438;28;20037;-80
2021/10/05 15:26:28;;;;;;;4.28;1.33;;;19.20;66.90;;;;;;6221800;28;20104;-80
2021/10/05 15:29:30;;;;;;;6.35;2.88;;;19.30;67.00;;;;;;6221899;28;20053;-79
2021/10/05 15:32:31;;;;;;;6.88;2.20;;;19.30;67.10;;;;;;6206314;28;20065;-80
2021/10/05 15:35:32;;;;;;;3.17;1.77;;;19.40;66.80;;;;;;6196349;28;20038;-80
2021/10/05 15:38:33;;;;;;;3.88;1.85;;;19.40;66.70;;;;;;6182405;28;20042;-80
2021/10/05 15:41:34;;;;;;;4.05;1.77;;;19.40;66.60;;;;;;6205222;28;20065;-80
2021/10/05 15:44:35;;;;;;;13.00;3.28;;;19.50;66.50;;;;;;6203647;28;20058;-80
2021/10/05 15:47:38;;;;;;;4.70;1.85;;;19.50;66.30;;;;;;6202820;28;20038;-80